Terminal Aerodrome Forecast
Issued by NWS Mt. Holly, NJ

Home | Current Version | Previous Version | Text Only | Print | Product List | Glossary On
Versions: 1 2 3 4 5 6 7 8 9 10 11 12 13 14 15 16 17 18 19 20 21 22 23 24 25 26 27 28 29 30 31 32 33 34 35 36 37 38 39 40 41 42 43 44 45 46 47 48 49 50
000
FTAK31 PANC 161140
TAFABE
TAF
PABE 161140Z 1612/1712 36009KT 6SM -SN BR BKN040
      TEMPO 1612/1615 4SM -SN BR SCT025 OVC040
     FM161600 32008KT P6SM SCT025 BKN050
     FM170000 29008KT P6SM FEW250=

USA.gov is the U.S. government's official web portal to all federal, state and local government web resources and services.